Time;durP1;ratioP1;P1;durP2;ratioP2;P2;SDS_P1;SDS_P2;PMS_P1;PMS_P2;Temp;Humidity;BMP_temperature;BMP_pressure;BME280_temperature;BME280_humidity;BME280_pressure;Samples;Min_cycle;Max_cycle;Signal;HPM_P1;HPM_P2
2024/01/31 00:01:15;;;;;;;11.90;6.95;;;7.70;99.90;;;;;;6244412;28;20061;-83
2024/01/31 00:04:17;;;;;;;13.25;7.28;;;7.80;99.90;;;;;;6265906;28;20060;-83
2024/01/31 00:07:19;;;;;;;13.05;7.32;;;7.70;99.90;;;;;;6256930;28;20050;-83
2024/01/31 00:10:20;;;;;;;13.20;7.70;;;7.70;99.90;;;;;;6263608;28;20438;-83
2024/01/31 00:13:22;;;;;;;11.60;6.97;;;7.80;99.90;;;;;;6260087;28;20045;-83
2024/01/31 00:16:24;;;;;;;14.93;7.90;;;7.80;99.90;;;;;;6248474;28;20405;-84
2024/01/31 00:19:26;;;;;;;13.52;7.53;;;7.70;99.90;;;;;;6268650;28;20059;-83
2024/01/31 00:22:27;;;;;;;12.63;7.28;;;7.70;99.90;;;;;;6243812;28;20068;-83
2024/01/31 00:25:29;;;;;;;10.75;7.00;;;7.70;99.90;;;;;;6264081;28;20773;-84
2024/01/31 00:28:31;;;;;;;11.77;6.90;;;7.70;99.90;;;;;;6249538;28;20057;-83
2024/01/31 00:31:33;;;;;;;12.38;6.97;;;7.70;99.90;;;;;;6248052;28;20088;-83
2024/01/31 00:34:35;;;;;;;11.10;6.78;;;7.70;99.90;;;;;;6262203;28;20080;-83
2024/01/31 00:37:37;;;;;;;11.77;6.75;;;7.60;99.90;;;;;;6243087;28;20056;-83
2024/01/31 00:40:38;;;;;;;11.63;6.88;;;7.60;99.90;;;;;;6266267;28;20515;-83
2024/01/31 00:43:40;;;;;;;14.57;7.60;;;7.70;99.90;;;;;;6250772;28;20056;-82
2024/01/31 00:46:42;;;;;;;13.35;7.20;;;7.70;99.90;;;;;;6241167;28;20072;-83
2024/01/31 00:49:44;;;;;;;12.25;6.90;;;7.70;99.90;;;;;;6266519;28;20539;-83
2024/01/31 00:52:46;;;;;;;11.32;6.47;;;7.70;99.90;;;;;;6243112;28;20405;-82
2024/01/31 00:55:47;;;;;;;14.35;7.15;;;7.70;99.90;;;;;;6266500;28;20057;-83
2024/01/31 00:58:49;;;;;;;13.23;7.40;;;7.70;99.90;;;;;;6253373;28;20056;-82
2024/01/31 01:01:51;;;;;;;13.63;7.20;;;7.70;99.90;;;;;;6260976;28;20049;-86
2024/01/31 01:04:52;;;;;;;14.30;7.15;;;7.70;99.90;;;;;;6246434;28;20057;-85
2024/01/31 01:07:54;;;;;;;14.20;7.43;;;7.70;99.90;;;;;;6270158;28;20065;-85
2024/01/31 01:10:56;;;;;;;15.68;8.35;;;7.70;99.90;;;;;;6251447;28;20045;-86
2024/01/31 01:13:57;;;;;;;18.05;8.60;;;7.70;99.90;;;;;;6256058;28;20057;-85
2024/01/31 01:16:59;;;;;;;16.40;8.45;;;7.70;99.90;;;;;;6247414;28;20528;-86
2024/01/31 01:20:01;;;;;;;14.77;8.80;;;7.70;99.90;;;;;;6257953;28;20492;-85
2024/01/31 01:23:03;;;;;;;13.43;8.05;;;7.60;99.90;;;;;;6270103;28;20393;-85
2024/01/31 01:26:04;;;;;;;15.65;8.90;;;7.70;99.90;;;;;;6245102;28;20504;-85
2024/01/31 01:29:06;;;;;;;15.93;8.50;;;7.70;99.90;;;;;;6265774;28;20041;-85
2024/01/31 01:32:08;;;;;;;18.73;9.02;;;7.60;99.90;;;;;;6246395;28;20053;-85
2024/01/31 01:35:09;;;;;;;14.73;8.40;;;7.70;99.90;;;;;;6268619;28;20056;-84
2024/01/31 01:38:11;;;;;;;15.70;8.63;;;7.60;99.90;;;;;;6245125;28;20136;-85
2024/01/31 01:41:12;;;;;;;15.80;8.60;;;7.60;99.90;;;;;;6267122;28;20075;-83
2024/01/31 01:44:14;;;;;;;15.77;8.35;;;7.60;99.90;;;;;;6251849;28;20071;-85
2024/01/31 01:47:16;;;;;;;13.77;8.00;;;7.60;99.90;;;;;;6269891;28;20061;-84
2024/01/31 01:50:18;;;;;;;13.60;7.97;;;7.60;99.90;;;;;;6247842;28;20053;-84
2024/01/31 01:53:20;;;;;;;12.55;7.85;;;7.60;99.90;;;;;;6258254;28;20053;-84
2024/01/31 01:56:21;;;;;;;17.38;8.40;;;7.60;99.90;;;;;;6270771;28;20053;-84
2024/01/31 01:59:23;;;;;;;18.77;7.28;;;7.50;99.90;;;;;;6261169;28;20079;-83
2024/01/31 02:02:25;;;;;;;11.35;6.68;;;7.60;99.90;;;;;;6250157;28;20102;-83
2024/01/31 02:05:27;;;;;;;11.27;6.72;;;7.50;99.90;;;;;;6251219;28;20041;-84
2024/01/31 02:08:28;;;;;;;11.05;6.22;;;7.50;99.90;;;;;;6246387;28;20056;-84
2024/01/31 02:11:30;;;;;;;10.60;5.85;;;7.50;99.90;;;;;;6270098;28;20060;-84
2024/01/31 02:14:32;;;;;;;10.75;6.25;;;7.50;99.90;;;;;;6245139;28;20054;-83
2024/01/31 02:17:33;;;;;;;11.80;6.05;;;7.60;99.90;;;;;;6270418;28;20049;-84
2024/01/31 02:20:35;;;;;;;8.60;5.25;;;7.50;99.90;;;;;;6246686;28;20488;-84
2024/01/31 02:23:37;;;;;;;9.65;5.50;;;7.60;99.70;;;;;;6271553;28;20060;-84
2024/01/31 02:26:38;;;;;;;9.43;5.15;;;7.50;99.30;;;;;;6246068;28;20374;-84
2024/01/31 02:29:40;;;;;;;10.20;5.45;;;7.60;99.00;;;;;;6267463;28;20053;-85
2024/01/31 02:32:42;;;;;;;8.52;4.85;;;7.50;98.30;;;;;;6269481;28;20048;-84
2024/01/31 02:35:43;;;;;;;7.32;4.30;;;7.50;97.60;;;;;;6245993;28;20562;-83
2024/01/31 02:38:45;;;;;;;8.90;4.22;;;7.50;95.60;;;;;;6269921;28;20140;-84
2024/01/31 02:41:47;;;;;;;8.38;4.40;;;7.60;95.00;;;;;;6247385;28;20045;-83
2024/01/31 02:44:49;;;;;;;7.38;4.55;;;7.60;95.30;;;;;;6256984;28;20061;-85
2024/01/31 02:47:50;;;;;;;6.93;3.78;;;7.70;95.20;;;;;;6271651;28;20045;-86
2024/01/31 02:50:52;;;;;;;6.13;3.40;;;7.60;92.30;;;;;;6262861;28;20049;-85
2024/01/31 02:53:54;;;;;;;4.85;2.60;;;7.50;91.60;;;;;;6254470;28;20053;-85
2024/01/31 02:56:56;;;;;;;3.90;2.40;;;7.50;80.90;;;;;;6272383;28;20053;-86
2024/01/31 02:59:58;;;;;;;4.53;2.15;;;7.50;75.70;;;;;;6247062;28;20056;-85
2024/01/31 03:02:59;;;;;;;3.42;2.00;;;7.50;56.80;;;;;;6245671;28;20053;-84
2024/01/31 03:06:01;;;;;;;3.40;2.20;;;7.50;64.00;;;;;;6268435;28;20059;-84
2024/01/31 03:09:02;;;;;;;4.78;2.40;;;7.60;73.20;;;;;;6244634;28;20136;-83
2024/01/31 03:12:04;;;;;;;3.63;2.30;;;7.50;68.20;;;;;;6250095;28;20116;-83
2024/01/31 03:15:06;;;;;;;3.80;2.13;;;7.50;73.70;;;;;;6264176;28;20053;-83
2024/01/31 03:18:07;;;;;;;3.63;1.98;;;7.50;77.50;;;;;;6244208;28;20542;-83
2024/01/31 03:21:09;;;;;;;3.67;1.95;;;7.50;71.40;;;;;;6254192;28;20883;-83
2024/01/31 03:24:12;;;;;;;3.33;1.90;;;7.40;66.00;;;;;;6269130;28;20053;-83
2024/01/31 03:27:13;;;;;;;3.60;1.90;;;7.40;69.00;;;;;;6244031;28;20770;-83
2024/01/31 03:30:17;;;;;;;3.40;2.08;;;7.50;67.40;;;;;;6243427;28;20122;-83
2024/01/31 03:33:19;;;;;;;3.78;2.10;;;7.40;60.30;;;;;;6267889;28;20199;-83
2024/01/31 03:36:21;;;;;;;5.07;2.28;;;7.40;65.90;;;;;;6244360;28;20053;-83
2024/01/31 03:39:22;;;;;;;3.30;1.98;;;7.40;64.50;;;;;;6254103;28;20053;-83
2024/01/31 03:42:24;;;;;;;5.80;2.20;;;7.40;73.70;;;;;;6269104;28;20045;-83
2024/01/31 03:45:26;;;;;;;3.42;2.10;;;7.40;76.00;;;;;;6252535;28;20431;-82
2024/01/31 03:48:28;;;;;;;3.70;1.90;;;7.40;77.90;;;;;;6248211;28;20052;-83
2024/01/31 03:51:30;;;;;;;3.47;2.00;;;7.50;70.30;;;;;;6272391;28;20058;-82
2024/01/31 03:54:31;;;;;;;4.15;2.10;;;7.40;71.30;;;;;;6247978;28;20053;-82
2024/01/31 03:57:33;;;;;;;4.03;2.00;;;7.40;70.20;;;;;;6269789;28;20519;-83
2024/01/31 04:00:35;;;;;;;3.47;1.90;;;7.40;73.90;;;;;;6261514;28;20748;-84
2024/01/31 04:03:36;;;;;;;3.97;1.95;;;7.30;76.90;;;;;;6246226;28;20061;-84
2024/01/31 04:06:38;;;;;;;4.63;1.90;;;7.30;74.00;;;;;;6286761;28;20045;-84
2024/01/31 04:09:40;;;;;;;3.17;1.67;;;7.30;72.80;;;;;;6247968;28;20191;-85
2024/01/31 04:12:41;;;;;;;3.60;1.60;;;7.30;68.50;;;;;;6248715;28;20088;-84
2024/01/31 04:15:43;;;;;;;3.08;1.52;;;7.30;65.90;;;;;;6268186;28;20507;-84
2024/01/31 04:18:45;;;;;;;2.75;1.55;;;7.40;62.90;;;;;;6269945;28;20056;-84
2024/01/31 04:21:47;;;;;;;4.68;1.67;;;7.30;68.30;;;;;;6246123;28;20049;-85
2024/01/31 04:24:49;;;;;;;3.30;1.50;;;7.30;63.40;;;;;;6270817;28;20053;-84
2024/01/31 04:27:50;;;;;;;3.17;1.60;;;7.30;66.10;;;;;;6247415;28;20071;-86
2024/01/31 04:30:52;;;;;;;2.95;1.50;;;7.30;68.90;;;;;;6265453;28;20064;-83
2024/01/31 04:33:54;;;;;;;2.75;1.40;;;7.20;61.40;;;;;;6245724;28;20060;-84
2024/01/31 04:36:56;;;;;;;3.35;1.50;;;7.30;58.40;;;;;;6270710;28;20476;-84
2024/01/31 04:39:58;;;;;;;3.30;1.60;;;7.30;50.00;;;;;;6246229;28;20413;-85
2024/01/31 04:42:59;;;;;;;4.07;1.73;;;7.30;53.70;;;;;;6266405;28;20602;-85
2024/01/31 04:46:01;;;;;;;3.40;1.50;;;7.30;55.40;;;;;;6248281;28;20061;-84
2024/01/31 04:49:03;;;;;;;2.63;1.50;;;7.30;56.00;;;;;;6251745;28;20540;-82
2024/01/31 04:52:05;;;;;;;2.75;1.60;;;7.30;55.00;;;;;;6268130;28;20063;-84
2024/01/31 04:55:06;;;;;;;5.47;1.90;;;7.30;50.10;;;;;;6243619;28;20508;-83
2024/01/31 04:58:08;;;;;;;3.40;1.60;;;7.30;57.20;;;;;;6266084;28;20139;-82
2024/01/31 05:01:11;;;;;;;2.90;1.60;;;7.30;51.90;;;;;;6267488;28;20052;-83
2024/01/31 05:04:13;;;;;;;2.97;1.65;;;7.20;49.00;;;;;;6243700;28;20049;-82
2024/01/31 05:07:14;;;;;;;3.70;1.77;;;7.30;49.10;;;;;;6265990;28;20060;-79
2024/01/31 05:10:16;;;;;;;2.97;1.85;;;7.20;51.40;;;;;;6266109;28;20523;-81
2024/01/31 05:13:18;;;;;;;3.67;1.98;;;7.20;50.10;;;;;;6244476;28;20527;-83
2024/01/31 05:16:19;;;;;;;3.20;1.80;;;7.20;49.70;;;;;;6267912;28;20734;-84
2024/01/31 05:19:21;;;;;;;4.25;2.00;;;7.20;56.20;;;;;;6243678;28;20049;-82
2024/01/31 05:22:26;;;;;;;3.80;2.10;;;7.20;52.70;;;;;;6270274;28;20059;-83
2024/01/31 05:25:28;;;;;;;5.13;2.28;;;7.20;57.70;;;;;;6248120;28;20060;-83
2024/01/31 05:28:30;;;;;;;3.92;2.17;;;7.20;49.00;;;;;;6260893;28;20273;-83
2024/01/31 05:31:32;;;;;;;3.67;2.10;;;7.20;49.00;;;;;;6271014;28;20056;-82
2024/01/31 05:34:34;;;;;;;3.28;2.00;;;7.20;56.00;;;;;;6247037;28;20412;-82
2024/01/31 05:37:35;;;;;;;4.65;2.70;;;7.20;50.00;;;;;;6271547;28;20128;-83
2024/01/31 05:40:42;;;;;;;4.47;2.30;;;7.20;58.10;;;;;;6272492;28;20106;-82
2024/01/31 05:43:44;;;;;;;4.88;2.22;;;7.20;54.00;;;;;;6250944;28;20514;-84
2024/01/31 05:46:46;;;;;;;4.28;2.40;;;7.20;47.80;;;;;;6247237;28;20049;-84
2024/01/31 05:49:47;;;;;;;4.78;2.63;;;7.20;53.50;;;;;;6272994;28;20056;-85
2024/01/31 05:52:49;;;;;;;5.47;2.88;;;7.20;48.90;;;;;;6272613;28;20128;-86
2024/01/31 05:55:51;;;;;;;4.88;2.80;;;7.20;49.00;;;;;;6269419;28;20057;-84
2024/01/31 05:58:53;;;;;;;3.78;2.50;;;7.20;49.00;;;;;;6256552;28;20052;-84
2024/01/31 06:01:54;;;;;;;5.78;2.90;;;7.20;46.90;;;;;;6248012;28;20060;-84
2024/01/31 06:04:56;;;;;;;5.88;2.90;;;7.20;44.00;;;;;;6270501;28;20059;-84
2024/01/31 06:07:58;;;;;;;5.28;3.00;;;7.20;46.50;;;;;;6246459;28;20140;-86
2024/01/31 06:11:08;;;;;;;5.93;3.00;;;7.10;38.90;;;;;;6271152;28;20055;-84
2024/01/31 06:14:10;;;;;;;7.00;3.00;;;7.10;40.90;;;;;;6246554;28;20072;-81
2024/01/31 06:17:14;;;;;;;4.35;2.80;;;7.10;36.40;;;;;;6269285;28;20049;-84
2024/01/31 06:20:15;;;;;;;5.22;3.03;;;7.10;41.50;;;;;;6246809;28;20821;-84
2024/01/31 06:23:17;;;;;;;5.30;3.10;;;7.10;37.90;;;;;;6267334;28;20053;-81
2024/01/31 06:26:23;;;;;;;5.25;2.88;;;7.10;40.90;;;;;;6245476;28;20107;-83
2024/01/31 06:29:25;;;;;;;4.35;2.85;;;7.20;39.00;;;;;;6266172;28;20053;-83
2024/01/31 06:32:32;;;;;;;4.75;2.67;;;7.10;36.20;;;;;;6259849;28;20054;-87
2024/01/31 06:35:34;;;;;;;5.07;2.83;;;7.10;38.50;;;;;;6265044;28;20499;-87
2024/01/31 06:38:35;;;;;;;4.88;3.10;;;7.10;45.10;;;;;;6261083;28;20058;-85
2024/01/31 06:41:37;;;;;;;4.45;2.55;;;7.10;44.40;;;;;;6255922;28;20060;-85
2024/01/31 06:44:39;;;;;;;5.03;2.30;;;7.10;48.80;;;;;;6260201;28;20059;-89
2024/01/31 06:47:40;;;;;;;4.72;2.45;;;7.10;43.00;;;;;;6271974;28;20059;-84
2024/01/31 06:50:42;;;;;;;3.80;2.60;;;7.10;36.20;;;;;;6259787;28;20048;-88
2024/01/31 06:53:47;;;;;;;4.47;2.70;;;7.10;41.80;;;;;;6271277;28;20044;-90
2024/01/31 06:56:49;;;;;;;6.70;2.67;;;7.10;39.70;;;;;;6246604;28;20064;-88
2024/01/31 06:59:50;;;;;;;5.03;2.50;;;7.00;39.90;;;;;;6268556;28;20053;-86
2024/01/31 07:02:53;;;;;;;6.72;2.70;;;7.00;40.60;;;;;;6245579;28;20053;-87
2024/01/31 07:05:55;;;;;;;3.85;2.50;;;7.00;43.20;;;;;;6269320;28;20049;-86
2024/01/31 07:08:56;;;;;;;4.30;2.42;;;7.10;40.20;;;;;;6269376;28;20485;-86
2024/01/31 07:11:59;;;;;;;7.10;2.70;;;7.10;40.90;;;;;;6246638;28;20501;-86
2024/01/31 07:15:01;;;;;;;5.90;2.50;;;7.00;48.70;;;;;;6266858;28;20060;-86
2024/01/31 07:18:02;;;;;;;7.00;3.22;;;7.00;41.80;;;;;;6246943;28;20057;-88
2024/01/31 07:21:04;;;;;;;4.82;2.40;;;7.00;43.90;;;;;;6269015;28;20123;-87
2024/01/31 07:24:06;;;;;;;8.05;2.45;;;7.00;44.00;;;;;;6270448;28;20516;-87
2024/01/31 07:27:24;;;;;;;7.18;2.75;;;7.10;44.20;;;;;;6246122;28;20057;-87
2024/01/31 07:30:26;;;;;;;5.53;2.78;;;7.10;46.40;;;;;;6276088;28;20064;-86
2024/01/31 07:33:27;;;;;;;4.32;2.85;;;7.10;43.20;;;;;;6246361;28;20405;-86
2024/01/31 07:36:29;;;;;;;6.43;2.60;;;7.00;41.80;;;;;;6283947;28;20172;-83
2024/01/31 07:39:31;;;;;;;11.35;3.40;;;7.10;45.70;;;;;;6245831;28;20054;-89
2024/01/31 07:42:33;;;;;;;6.32;2.65;;;7.10;39.30;;;;;;6270442;28;20065;-88
2024/01/31 07:45:37;;;;;;;6.30;2.90;;;7.20;41.10;;;;;;6261068;28;20067;-87
2024/01/31 07:48:38;;;;;;;6.38;2.58;;;7.20;40.90;;;;;;6248751;28;20045;-88
2024/01/31 07:51:40;;;;;;;6.53;3.08;;;7.20;43.10;;;;;;6268077;28;20049;-86
2024/01/31 07:54:42;;;;;;;5.15;3.22;;;7.10;44.00;;;;;;6274238;28;20052;-87
2024/01/31 07:57:44;;;;;;;6.03;2.80;;;7.20;40.70;;;;;;6250836;28;20104;-87
2024/01/31 08:00:45;;;;;;;6.38;3.00;;;7.20;44.40;;;;;;6270525;28;20049;-86
2024/01/31 08:03:47;;;;;;;7.45;3.10;;;7.20;46.30;;;;;;6263138;28;20429;-87
2024/01/31 08:06:49;;;;;;;5.38;2.92;;;7.20;44.10;;;;;;6277814;28;20045;-87
2024/01/31 08:09:51;;;;;;;17.40;3.45;;;7.30;48.00;;;;;;6272625;28;20116;-85
2024/01/31 08:12:53;;;;;;;5.80;3.17;;;7.30;55.10;;;;;;6249829;28;20055;-90
2024/01/31 08:15:55;;;;;;;6.90;3.20;;;7.30;49.70;;;;;;6248533;28;20064;-87
2024/01/31 08:18:57;;;;;;;6.57;3.10;;;7.30;50.30;;;;;;6270306;28;20048;-87
2024/01/31 08:21:58;;;;;;;6.13;2.83;;;7.30;45.60;;;;;;6247105;28;20054;-87
2024/01/31 08:25:01;;;;;;;6.35;2.95;;;7.40;49.10;;;;;;6270589;28;20064;-87
2024/01/31 08:28:03;;;;;;;5.15;2.72;;;7.40;49.20;;;;;;6255448;28;20410;-88
2024/01/31 08:31:04;;;;;;;5.45;2.78;;;7.40;51.40;;;;;;6271490;28;20139;-88
2024/01/31 08:34:06;;;;;;;9.95;2.70;;;7.40;54.80;;;;;;6247173;28;20050;-92
2024/01/31 08:37:08;;;;;;;7.43;3.30;;;7.50;52.10;;;;;;6272669;28;20152;-86
2024/01/31 08:40:10;;;;;;;6.07;3.00;;;7.60;54.50;;;;;;6244085;28;20425;-87
2024/01/31 08:43:14;;;;;;;6.68;3.10;;;7.60;48.40;;;;;;6259339;28;20800;-86
2024/01/31 08:46:16;;;;;;;15.98;3.70;;;7.60;51.70;;;;;;6243045;28;20105;-84
2024/01/31 08:49:18;;;;;;;12.55;3.60;;;7.70;49.50;;;;;;6267819;28;20451;-84
2024/01/31 08:52:19;;;;;;;8.52;3.25;;;7.70;50.30;;;;;;6267688;28;20052;-85
2024/01/31 08:55:21;;;;;;;7.57;3.40;;;7.70;50.40;;;;;;6261045;28;20500;-84
2024/01/31 08:58:23;;;;;;;7.00;3.47;;;7.70;49.80;;;;;;6275495;28;20668;-84
2024/01/31 09:01:25;;;;;;;10.98;3.22;;;7.70;48.50;;;;;;6267791;28;20048;-84
2024/01/31 09:04:27;;;;;;;6.70;3.60;;;7.70;54.30;;;;;;6247141;28;20064;-83
2024/01/31 09:07:29;;;;;;;8.18;3.65;;;7.70;53.50;;;;;;6263290;28;20055;-88
2024/01/31 09:10:31;;;;;;;8.52;3.53;;;7.80;54.40;;;;;;6261344;28;20141;-83
2024/01/31 09:13:33;;;;;;;6.70;3.30;;;7.70;52.80;;;;;;6258074;28;20154;-84
2024/01/31 09:16:35;;;;;;;8.38;3.50;;;7.80;51.00;;;;;;6246404;28;20053;-85
2024/01/31 09:19:36;;;;;;;6.93;3.80;;;7.80;51.70;;;;;;6273103;28;20049;-82
2024/01/31 09:22:40;;;;;;;7.88;3.25;;;7.90;59.10;;;;;;6257928;28;20153;-83
2024/01/31 09:25:41;;;;;;;6.75;3.47;;;7.90;49.60;;;;;;6246197;28;20053;-84
2024/01/31 09:28:43;;;;;;;8.85;3.10;;;7.90;54.70;;;;;;6284198;28;20057;-81
2024/01/31 09:31:45;;;;;;;6.95;3.38;;;8.00;55.90;;;;;;6256987;28;20080;-90
2024/01/31 09:34:47;;;;;;;6.55;3.25;;;8.00;53.20;;;;;;6280730;28;20059;-90
2024/01/31 09:37:49;;;;;;;7.80;3.28;;;8.00;56.30;;;;;;6259412;28;20112;-89
2024/01/31 09:40:51;;;;;;;6.75;3.15;;;8.10;58.20;;;;;;6281880;28;20052;-90
2024/01/31 09:43:53;;;;;;;5.50;3.00;;;8.10;62.20;;;;;;6271234;28;20094;-91
2024/01/31 09:46:55;;;;;;;9.20;3.25;;;8.10;57.10;;;;;;6264434;28;20129;-89
2024/01/31 09:49:57;;;;;;;6.25;3.08;;;8.20;59.70;;;;;;6286391;28;20120;-90
2024/01/31 09:53:00;;;;;;;6.60;3.15;;;8.20;62.30;;;;;;6253590;28;20098;-93
2024/01/31 09:56:01;;;;;;;5.63;2.92;;;8.30;47.60;;;;;;6265662;28;20038;-92
2024/01/31 09:59:04;;;;;;;7.25;3.60;;;8.30;52.40;;;;;;6284884;28;20147;-89
2024/01/31 10:02:05;;;;;;;7.25;2.85;;;8.40;56.30;;;;;;6272224;28;20168;-90
2024/01/31 10:05:07;;;;;;;6.90;2.80;;;8.40;50.10;;;;;;6256951;28;20128;-91
2024/01/31 10:08:09;;;;;;;7.93;2.58;;;8.40;50.10;;;;;;6249946;28;20513;-89
2024/01/31 10:11:11;;;;;;;7.78;2.38;;;8.40;38.70;;;;;;6249043;28;20053;-87
2024/01/31 10:14:13;;;;;;;9.48;2.65;;;8.50;37.40;;;;;;6258042;28;20048;-88
2024/01/31 10:17:14;;;;;;;8.60;2.45;;;8.40;31.40;;;;;;6271894;28;20053;-85
2024/01/31 10:20:16;;;;;;;4.80;2.42;;;8.40;28.20;;;;;;6248110;28;20050;-87
2024/01/31 10:23:18;;;;;;;7.10;2.50;;;8.50;34.30;;;;;;6271572;28;20452;-87
2024/01/31 10:26:20;;;;;;;8.40;2.80;;;8.50;30.40;;;;;;6249484;28;20041;-88
2024/01/31 10:29:22;;;;;;;6.75;2.40;;;8.60;38.50;;;;;;6254380;28;20061;-87
2024/01/31 10:32:23;;;;;;;5.85;2.40;;;8.70;28.20;;;;;;6272221;28;20057;-87
2024/01/31 10:35:25;;;;;;;10.00;2.50;;;8.80;28.00;;;;;;6269075;28;20056;-90
2024/01/31 10:38:47;;;;;;;8.30;2.22;;;8.80;27.70;;;;;;6249669;28;20140;-87
2024/01/31 10:41:52;;;;;;;56.72;5.35;;;8.80;16.10;;;;;;6271907;28;20051;-86
2024/01/31 10:44:53;;;;;;;7.38;2.50;;;8.80;20.60;;;;;;6268694;28;20069;-88
2024/01/31 10:47:55;;;;;;;6.55;2.08;;;8.80;17.90;;;;;;6246525;28;20045;-86
2024/01/31 10:50:57;;;;;;;6.10;2.20;;;8.80;17.10;;;;;;6264866;28;20053;-84
2024/01/31 10:53:59;;;;;;;6.53;2.25;;;8.90;18.90;;;;;;6270176;28;20049;-84
2024/01/31 10:57:00;;;;;;;7.47;2.05;;;8.80;21.10;;;;;;6268364;28;20414;-84
2024/01/31 11:00:03;;;;;;;7.15;2.25;;;8.80;17.30;;;;;;6266935;28;20435;-84
2024/01/31 11:03:05;;;;;;;5.95;1.83;;;8.70;15.90;;;;;;6270062;28;20082;-85
2024/01/31 11:06:07;;;;;;;6.93;2.30;;;8.70;12.90;;;;;;6254656;28;20122;-83
2024/01/31 11:09:09;;;;;;;5.93;1.70;;;8.70;17.30;;;;;;6245414;28;20046;-85
2024/01/31 11:12:11;;;;;;;9.00;1.70;;;8.70;11.80;;;;;;6245304;28;20061;-82
2024/01/31 11:15:12;;;;;;;5.85;1.92;;;8.70;12.00;;;;;;6241810;28;20076;-83
2024/01/31 11:18:14;;;;;;;5.18;1.40;;;8.70;8.00;;;;;;6245512;28;20063;-87
2024/01/31 11:21:17;;;;;;;9.18;2.10;;;8.80;3.70;;;;;;6244696;28;20251;-84
2024/01/31 11:24:19;;;;;;;6.93;1.58;;;8.80;6.90;;;;;;6266795;28;20055;-83
2024/01/31 11:27:21;;;;;;;8.88;1.95;;;8.90;5.40;;;;;;6245262;28;20155;-84
2024/01/31 11:30:23;;;;;;;5.10;1.75;;;9.00;7.10;;;;;;6264929;28;20052;-87
2024/01/31 11:33:24;;;;;;;8.00;1.60;;;9.10;4.20;;;;;;6260643;28;20094;-86
2024/01/31 11:36:26;;;;;;;7.55;1.50;;;9.00;1.00;;;;;;6270041;28;20405;-85
2024/01/31 11:39:28;;;;;;;7.28;1.40;;;9.10;8.50;;;;;;6259745;28;20421;-84
2024/01/31 11:42:30;;;;;;;7.30;1.65;;;9.10;1.00;;;;;;6245835;28;20068;-86
2024/01/31 11:45:31;;;;;;;5.80;1.58;;;9.10;1.00;;;;;;6252633;28;20065;-88
2024/01/31 11:48:33;;;;;;;6.07;1.70;;;9.20;1.00;;;;;;6268887;28;20072;-86
2024/01/31 11:51:35;;;;;;;10.95;2.35;;;9.30;2.10;;;;;;6245558;28;20488;-84
2024/01/31 11:54:36;;;;;;;6.20;1.90;;;9.20;1.00;;;;;;6275351;28;20041;-85
2024/01/31 11:57:39;;;;;;;8.70;2.00;;;9.10;1.00;;;;;;6259144;28;20056;-86
2024/01/31 12:00:40;;;;;;;10.00;1.73;;;9.00;1.00;;;;;;6265765;28;20352;-83
2024/01/31 12:03:43;;;;;;;11.65;2.13;;;8.90;1.00;;;;;;6242613;28;20060;-84
2024/01/31 12:06:45;;;;;;;6.55;1.65;;;8.90;1.00;;;;;;6283151;28;20057;-83
2024/01/31 12:09:47;;;;;;;8.20;1.77;;;8.90;3.90;;;;;;6242769;28;20803;-83
2024/01/31 12:12:48;;;;;;;7.22;1.63;;;9.00;1.00;;;;;;6250101;28;20052;-84
2024/01/31 12:15:50;;;;;;;9.98;1.80;;;9.00;2.40;;;;;;6266434;28;20053;-83
2024/01/31 12:18:57;;;;;;;15.77;2.38;;;9.20;1.00;;;;;;6244318;28;20084;-86
2024/01/31 12:21:59;;;;;;;9.90;2.10;;;9.30;1.00;;;;;;6267618;28;20423;-86
2024/01/31 12:25:01;;;;;;;9.75;1.80;;;9.30;1.00;;;;;;6243532;28;20353;-85
2024/01/31 12:28:03;;;;;;;6.75;1.60;;;9.40;1.00;;;;;;6260104;28;20056;-84
2024/01/31 12:31:04;;;;;;;9.52;1.75;;;9.50;1.00;;;;;;6244044;28;20064;-84
2024/01/31 12:34:06;;;;;;;7.90;1.60;;;9.70;1.00;;;;;;6268220;28;20516;-84
2024/01/31 12:37:08;;;;;;;5.82;1.40;;;9.80;1.00;;;;;;6242715;28;20861;-85
2024/01/31 12:40:09;;;;;;;7.60;1.90;;;10.00;1.00;;;;;;6276409;28;20389;-84
2024/01/31 12:43:12;;;;;;;7.13;1.42;;;10.10;1.00;;;;;;6267090;28;20049;-90
2024/01/31 12:46:14;;;;;;;7.82;1.50;;;10.00;1.00;;;;;;6269303;28;20061;-84
2024/01/31 12:49:15;;;;;;;6.20;1.35;;;10.20;1.00;;;;;;6268898;28;20060;-87
2024/01/31 12:52:21;;;;;;;8.18;1.35;;;10.00;1.00;;;;;;6263179;28;20057;-84
2024/01/31 12:55:23;;;;;;;7.25;1.50;;;9.90;1.00;;;;;;6244301;28;20049;-86
2024/01/31 12:58:25;;;;;;;6.68;1.55;;;10.00;1.00;;;;;;6262892;28;20136;-86
2024/01/31 13:01:26;;;;;;;5.90;1.80;;;10.10;1.00;;;;;;6243034;28;20049;-85
2024/01/31 13:04:28;;;;;;;5.63;1.35;;;10.30;1.00;;;;;;6266843;28;20056;-87
2024/01/31 13:07:30;;;;;;;5.03;1.30;;;10.30;1.00;;;;;;6244269;28;20524;-86
2024/01/31 13:10:32;;;;;;;6.35;1.50;;;10.40;1.00;;;;;;6268424;28;20057;-85
2024/01/31 13:13:36;;;;;;;8.55;1.70;;;10.40;1.00;;;;;;6248621;28;20431;-86
2024/01/31 13:16:37;;;;;;;9.00;1.77;;;10.40;1.00;;;;;;6267000;28;20049;-84
2024/01/31 13:19:55;;;;;;;9.18;1.50;;;10.40;1.00;;;;;;6243460;28;20060;-81
2024/01/31 13:22:57;;;;;;;6.75;1.40;;;10.40;1.00;;;;;;6266756;28;20049;-84
2024/01/31 13:25:59;;;;;;;6.93;1.40;;;10.50;1.00;;;;;;6242142;28;20069;-81
2024/01/31 13:29:00;;;;;;;10.10;1.77;;;10.40;1.00;;;;;;6263536;28;20049;-86
2024/01/31 13:32:02;;;;;;;8.02;1.80;;;10.50;1.00;;;;;;6246487;28;20135;-87
2024/01/31 13:35:04;;;;;;;6.00;1.25;;;10.60;1.00;;;;;;6273135;28;20474;-91
2024/01/31 13:38:06;;;;;;;6.30;1.42;;;10.70;1.00;;;;;;6292649;28;20043;-89
2024/01/31 13:41:07;;;;;;;8.00;1.90;;;10.80;1.00;;;;;;6270382;28;20046;-87
2024/01/31 13:44:10;;;;;;;10.38;1.45;;;10.80;1.00;;;;;;6275273;28;20064;-89
2024/01/31 13:47:11;;;;;;;8.35;1.73;;;10.90;1.00;;;;;;6263204;28;20060;-89
2024/01/31 13:50:13;;;;;;;13.68;1.70;;;11.00;1.00;;;;;;6277454;28;20052;-85
2024/01/31 13:53:15;;;;;;;6.90;1.58;;;10.90;1.00;;;;;;6252564;28;20053;-85
2024/01/31 13:56:18;;;;;;;6.50;1.50;;;10.80;1.00;;;;;;6249187;28;20084;-88
2024/01/31 13:59:20;;;;;;;6.40;1.80;;;10.90;1.00;;;;;;6279262;28;20067;-88
2024/01/31 14:02:21;;;;;;;8.00;2.53;;;10.90;1.00;;;;;;6254400;28;20115;-88
2024/01/31 14:05:23;;;;;;;23.95;10.18;;;10.90;1.00;;;;;;6274715;28;20048;-83
2024/01/31 14:08:25;;;;;;;20.05;9.00;;;10.80;1.00;;;;;;6270578;28;20081;-83
2024/01/31 14:11:28;;;;;;;7.32;2.35;;;10.80;1.00;;;;;;6261531;28;20060;-80
2024/01/31 14:14:31;;;;;;;8.27;1.60;;;10.90;1.00;;;;;;6263921;28;20053;-79
2024/01/31 14:17:33;;;;;;;7.80;2.30;;;10.90;1.00;;;;;;6269012;28;20053;-83
2024/01/31 14:20:36;;;;;;;5.93;1.67;;;10.70;1.00;;;;;;6271052;28;20140;-81
2024/01/31 14:23:38;;;;;;;10.15;2.47;;;10.70;2.50;;;;;;6246846;28;20060;-85
2024/01/31 14:26:45;;;;;;;7.63;2.10;;;10.70;7.00;;;;;;6261798;28;20056;-85
2024/01/31 14:29:46;;;;;;;9.98;2.20;;;10.50;7.50;;;;;;6259115;28;20081;-83
2024/01/31 14:32:51;;;;;;;7.63;2.20;;;10.60;6.90;;;;;;6272298;28;20519;-89
2024/01/31 14:35:53;;;;;;;8.77;1.70;;;10.70;14.60;;;;;;6246487;28;20162;-80
2024/01/31 14:38:55;;;;;;;5.90;1.83;;;10.70;16.90;;;;;;6270556;28;20057;-79
2024/01/31 14:41:57;;;;;;;6.18;1.50;;;10.80;16.20;;;;;;6246016;28;20055;-82
2024/01/31 14:44:59;;;;;;;6.25;1.38;;;10.90;18.10;;;;;;6260034;28;20071;-81
2024/01/31 14:48:01;;;;;;;6.90;1.88;;;10.80;24.60;;;;;;6266321;28;20055;-82
2024/01/31 14:51:03;;;;;;;5.05;1.60;;;10.70;27.40;;;;;;6274720;28;20452;-81
2024/01/31 14:54:05;;;;;;;7.40;1.85;;;10.60;37.40;;;;;;6253662;28;20052;-80
2024/01/31 14:57:06;;;;;;;8.80;1.92;;;10.50;42.50;;;;;;6269804;28;20531;-84
2024/01/31 15:00:08;;;;;;;11.48;1.92;;;10.40;54.90;;;;;;6243629;28;20049;-83
2024/01/31 15:03:10;;;;;;;9.40;1.95;;;10.40;68.50;;;;;;6258963;28;20053;-83
2024/01/31 15:06:12;;;;;;;13.68;2.50;;;10.40;76.90;;;;;;6280056;28;20052;-83
2024/01/31 15:09:15;;;;;;;12.40;2.47;;;10.40;82.10;;;;;;6269358;28;20408;-84
2024/01/31 15:12:20;;;;;;;15.55;2.65;;;10.40;86.30;;;;;;6267670;28;20048;-83
2024/01/31 15:15:22;;;;;;;22.52;2.42;;;10.40;90.00;;;;;;6241123;28;20600;-83
2024/01/31 15:18:24;;;;;;;8.43;1.92;;;10.40;90.90;;;;;;6268602;28;20053;-86
2024/01/31 15:21:26;;;;;;;15.00;2.67;;;10.50;91.30;;;;;;6246015;28;20646;-83
2024/01/31 15:24:28;;;;;;;13.45;2.50;;;10.50;91.30;;;;;;6271003;28;20057;-87
2024/01/31 15:27:30;;;;;;;18.88;2.95;;;10.50;91.60;;;;;;6248666;28;20095;-86
2024/01/31 15:30:31;;;;;;;13.13;2.28;;;10.40;92.70;;;;;;6241115;28;20057;-83
2024/01/31 15:33:33;;;;;;;10.35;2.28;;;10.30;94.10;;;;;;6245362;28;20064;-82
2024/01/31 15:36:35;;;;;;;11.90;2.88;;;10.20;94.80;;;;;;6275278;28;20053;-81
2024/01/31 15:39:36;;;;;;;9.13;2.38;;;10.20;96.10;;;;;;6269192;28;20056;-81
2024/01/31 15:42:39;;;;;;;10.43;2.42;;;10.20;97.40;;;;;;6245357;28;20080;-82
2024/01/31 15:45:41;;;;;;;8.25;2.30;;;10.10;97.70;;;;;;6249436;28;20072;-81
2024/01/31 15:48:43;;;;;;;13.77;2.75;;;10.10;98.90;;;;;;6267270;28;20053;-83
2024/01/31 15:51:46;;;;;;;12.55;2.72;;;10.00;99.90;;;;;;6244010;28;20393;-82
2024/01/31 15:54:47;;;;;;;8.98;2.30;;;10.10;99.90;;;;;;6266680;28;20106;-83
2024/01/31 15:57:49;;;;;;;8.18;2.38;;;10.10;99.90;;;;;;6246899;28;20049;-82